Terminal Aerodrome Forecast
Issued by NWS Birmingham, AL

Home | Current Version | Previous Version | Text Only | Print | Product List | Glossary On
Versions: 1 2 3 4 5 6 7 8 9 10 11 12 13 14 15 16 17
000
FTUS44 KBMX 300114 AAA
TAFBHM
TAF AMD
KBHM 300114Z 3001/3024 05010G20KT P6SM RA SCT080 OVC110
     FM300200 07008KT P6SM -RA BKN050 OVC110
     FM300700 12006KT P6SM OVC100
     FM301500 19008KT P6SM OVC050
     FM302000 19008KT P6SM VCSH SCT060 BKN250=

USA.gov is the U.S. government's official web portal to all federal, state and local government web resources and services.